createdAt,value
2019-04-30T00:00:06.202Z,96.18
2019-04-30T00:05:10.086Z,96.97
2019-04-30T00:10:08.334Z,95.99
2019-04-30T00:15:06.205Z,95.7
2019-04-30T00:20:06.877Z,95.92
2019-04-30T00:25:09.443Z,95.25
2019-04-30T00:30:07.328Z,95.73
2019-04-30T00:35:11.564Z,95.87
2019-04-30T00:40:09.642Z,96.18
2019-04-30T00:45:09.624Z,94.93
2019-04-30T00:50:09.470Z,95.6
2019-04-30T00:55:09.481Z,96.07
2019-04-30T01:00:05.090Z,96.35
2019-04-30T01:05:09.001Z,96.79
2019-04-30T01:10:05.832Z,96.86
2019-04-30T01:15:10.467Z,97.08
2019-04-30T01:20:10.046Z,97.65
2019-04-30T01:25:20.744Z,98.34
2019-04-30T01:30:08.665Z,97.76
2019-04-30T01:35:06.421Z,98.01
2019-04-30T01:40:13.412Z,97.47
2019-04-30T01:45:05.431Z,95.16
2019-04-30T01:50:09.597Z,95.45
2019-04-30T01:55:08.523Z,98.03
2019-04-30T02:00:03.048Z,98
2019-04-30T02:05:08.911Z,98.36
2019-04-30T02:10:08.727Z,98.7
2019-04-30T02:15:03.728Z,97.79
2019-04-30T02:20:09.504Z,98.54
2019-04-30T02:25:12.274Z,96.24
2019-04-30T02:30:06.731Z,95.63
2019-04-30T02:35:09.746Z,98.23
2019-04-30T02:40:13.379Z,95.63
2019-04-30T02:45:06.534Z,97.89
2019-04-30T02:50:15.464Z,98.54
2019-04-30T02:55:13.172Z,97.91
2019-04-30T03:00:03.724Z,98.83
2019-04-30T03:05:14.048Z,98.02
2019-04-30T03:10:10.893Z,96.21
2019-04-30T03:15:09.732Z,98.3
2019-04-30T03:20:10.704Z,98.53
2019-04-30T03:25:09.881Z,98.21
2019-04-30T03:30:11.886Z,96.46
2019-04-30T03:35:12.209Z,96.43
2019-04-30T03:40:12.777Z,96.34
2019-04-30T03:45:02.596Z,96.58
2019-04-30T03:50:06.623Z,96.63
2019-04-30T03:55:09.322Z,96.51
2019-04-30T04:00:02.927Z,96.57
2019-04-30T04:05:07.045Z,96.71
2019-04-30T04:10:04.420Z,98.44
2019-04-30T04:15:10.174Z,98.5
2019-04-30T04:20:07.335Z,98.8
2019-04-30T04:25:12.756Z,98.71
2019-04-30T04:30:04.009Z,98.65
2019-04-30T04:35:12.743Z,98.32
2019-04-30T04:40:05.605Z,98.5
2019-04-30T04:45:03.027Z,98.31
2019-04-30T04:50:04.841Z,98.6
2019-04-30T04:55:04.153Z,98.63
2019-04-30T05:00:07.445Z,98.43
2019-04-30T05:05:04.694Z,98.56
2019-04-30T05:10:03.770Z,98.53
2019-04-30T05:15:04.462Z,98.66
2019-04-30T05:20:09.804Z,98.31
2019-04-30T05:25:09.770Z,98.27
2019-04-30T05:30:05.679Z,98.21
2019-04-30T05:35:10.225Z,96.13
2019-04-30T05:40:09.170Z,98.44
2019-04-30T05:45:04.082Z,98.05
2019-04-30T05:50:08.985Z,98.79
2019-04-30T05:55:08.533Z,97.95
2019-04-30T06:00:04.352Z,98.76
2019-04-30T06:05:08.616Z,97.95
2019-04-30T06:10:06.607Z,98.24
2019-04-30T06:15:04.253Z,98.42
2019-04-30T06:20:16.139Z,95.45
2019-04-30T06:25:10.547Z,98.31
2019-04-30T06:30:04.372Z,98.33
2019-04-30T06:35:09.091Z,97.7
2019-04-30T06:40:09.379Z,96.08
2019-04-30T06:45:04.453Z,95.11
2019-04-30T06:50:06.748Z,93.16
2019-04-30T06:55:09.966Z,92.51
2019-04-30T07:00:04.804Z,90.16
2019-04-30T07:05:10.313Z,90.97
2019-04-30T07:10:03.982Z,87.72
2019-04-30T07:15:04.532Z,86.86
2019-04-30T07:20:07.593Z,88.17
2019-04-30T07:25:09.508Z,85.61
2019-04-30T07:30:04.236Z,85.41
2019-04-30T07:35:09.391Z,85.26
2019-04-30T07:40:06.559Z,86.78
2019-04-30T07:45:04.406Z,82.53
2019-04-30T07:50:10.279Z,82.07
2019-04-30T07:55:09.725Z,83.86
2019-04-30T08:00:04.299Z,83.73
2019-04-30T08:05:10.329Z,80.4
2019-04-30T08:10:08.802Z,81.96
2019-04-30T08:15:04.426Z,82.12
2019-04-30T08:20:06.329Z,80.28
2019-04-30T08:25:09.621Z,78.59
2019-04-30T08:30:03.223Z,78.84
2019-04-30T08:35:06.437Z,77.93
2019-04-30T08:40:08.777Z,77.97
2019-04-30T08:45:03.290Z,77.39
2019-04-30T08:50:06.902Z,76.1
2019-04-30T08:55:15.603Z,73.04
2019-04-30T09:00:03.209Z,73.23
2019-04-30T09:05:06.880Z,72
2019-04-30T09:10:10.170Z,70.67
2019-04-30T09:15:02.791Z,72.32
2019-04-30T09:20:10.040Z,70.21
2019-04-30T09:25:09.279Z,70.82
2019-04-30T09:30:02.848Z,73.14
2019-04-30T09:35:09.993Z,75.1
2019-04-30T09:40:17.624Z,69.84
2019-04-30T09:45:02.994Z,68.62
2019-04-30T09:50:08.983Z,67.16
2019-04-30T09:55:09.432Z,68.49
2019-04-30T10:00:03.148Z,69.77
2019-04-30T10:05:08.002Z,67.13
2019-04-30T10:10:09.470Z,67.86
2019-04-30T10:15:02.829Z,64.47
2019-04-30T10:20:06.784Z,64.9
2019-04-30T10:25:09.262Z,63.66
2019-04-30T10:30:02.881Z,64.37
2019-04-30T10:35:06.709Z,64.43
2019-04-30T10:40:07.535Z,66.83
2019-04-30T10:45:02.977Z,66.47
2019-04-30T10:50:04.718Z,65.09
2019-04-30T10:55:06.032Z,63.02
2019-04-30T11:00:04.379Z,61.36
2019-04-30T11:05:06.856Z,61.63
2019-04-30T11:10:08.745Z,63.67
2019-04-30T11:15:04.331Z,62.07
2019-04-30T11:20:06.594Z,63.36
2019-04-30T11:25:09.699Z,63.81
2019-04-30T11:30:04.318Z,60.16
2019-04-30T11:35:06.981Z,62.22
2019-04-30T11:40:07.611Z,60.36
2019-04-30T11:45:04.317Z,61.47
2019-04-30T11:50:06.898Z,61.91
2019-04-30T11:55:09.505Z,61.69
2019-04-30T12:00:04.367Z,63.24
2019-04-30T12:05:07.117Z,62.3
2019-04-30T12:10:09.550Z,60
2019-04-30T12:15:04.231Z,60.39
2019-04-30T12:20:08.595Z,59.41
2019-04-30T12:25:10.097Z,60.82
2019-04-30T12:30:03.741Z,61.11
2019-04-30T12:35:07.200Z,62.78
2019-04-30T12:40:25.137Z,59.07
2019-04-30T12:45:04.212Z,59.17
2019-04-30T12:50:09.552Z,60.62
2019-04-30T12:55:15.575Z,60.35
2019-04-30T13:00:06.816Z,60.97
2019-04-30T13:05:10.479Z,59.05
2019-04-30T13:10:08.189Z,60.39
2019-04-30T13:15:03.981Z,62.2
2019-04-30T13:20:18.203Z,59.47
2019-04-30T13:25:09.309Z,59.3
2019-04-30T13:30:04.071Z,58.92
2019-04-30T13:35:09.253Z,58.36
2019-04-30T13:40:07.588Z,58.87
2019-04-30T13:45:04.178Z,58.73
2019-04-30T13:50:06.628Z,59.91
2019-04-30T13:55:10.542Z,58.73
2019-04-30T14:00:04.411Z,60.15
2019-04-30T14:05:06.605Z,61.01
2019-04-30T14:10:08.531Z,59
2019-04-30T14:15:03.848Z,58.27
2019-04-30T14:20:07.359Z,62.08
2019-04-30T14:25:09.667Z,57.34
2019-04-30T14:30:04.180Z,59.23
2019-04-30T14:35:09.117Z,59.03
2019-04-30T14:40:12.171Z,58.82
2019-04-30T14:45:06.283Z,60.34
2019-04-30T14:50:10.930Z,59.77
2019-04-30T14:55:09.904Z,56.75
2019-04-30T15:00:12.618Z,57.93
2019-04-30T15:05:15.413Z,58.18
2019-04-30T15:10:04.633Z,56.41
2019-04-30T15:15:09.151Z,56.63
2019-04-30T15:20:04.894Z,58.4
2019-04-30T15:25:08.107Z,60.81
2019-04-30T15:30:08.188Z,57.76
2019-04-30T15:35:09.739Z,58.14
2019-04-30T15:40:09.136Z,56.82
2019-04-30T15:45:07.065Z,57.44
2019-04-30T15:50:06.226Z,58.06
2019-04-30T15:55:06.902Z,57.27
2019-04-30T16:00:03.880Z,55.58
2019-04-30T16:05:09.004Z,57.79
2019-04-30T16:10:03.725Z,57.3
2019-04-30T16:15:09.917Z,55.31
2019-04-30T16:20:09.169Z,55.52
2019-04-30T16:25:08.626Z,60.3
2019-04-30T16:30:03.650Z,54.79
2019-04-30T16:35:08.947Z,53.14
2019-04-30T16:40:08.317Z,53.25
2019-04-30T16:45:03.412Z,54.67
2019-04-30T16:50:05.882Z,55.15
2019-04-30T16:55:05.419Z,57.27
2019-04-30T17:00:03.554Z,57.73
2019-04-30T17:05:05.457Z,59.18
2019-04-30T17:10:05.795Z,60.3
2019-04-30T17:15:04.427Z,64.38
2019-04-30T17:20:05.052Z,63.87
2019-04-30T17:25:07.070Z,64.37
2019-04-30T17:30:03.720Z,64.12
2019-04-30T17:35:09.047Z,65.12
2019-04-30T17:40:09.240Z,64.77
2019-04-30T17:45:04.080Z,63.94
2019-04-30T17:50:08.729Z,64.92
2019-04-30T17:55:09.670Z,65.32
2019-04-30T18:00:16.159Z,67.74
2019-04-30T18:05:07.053Z,67.58
2019-04-30T18:10:09.603Z,67.28
2019-04-30T18:15:04.868Z,67.76
2019-04-30T18:20:10.965Z,68.92
2019-04-30T18:25:09.383Z,69.38
2019-04-30T18:30:04.111Z,69.77
2019-04-30T18:35:09.255Z,70.44
2019-04-30T18:40:07.365Z,71.22
2019-04-30T18:45:03.993Z,72.5
2019-04-30T18:50:09.226Z,72.8
2019-04-30T18:55:09.316Z,73.75
2019-04-30T19:00:04.022Z,74.9
2019-04-30T19:05:09.478Z,75.13
2019-04-30T19:10:06.410Z,76.68
2019-04-30T19:15:03.959Z,78
2019-04-30T19:20:08.597Z,78.84
2019-04-30T19:25:08.961Z,79.61
2019-04-30T19:30:03.094Z,80.54
2019-04-30T19:35:06.034Z,79.91
2019-04-30T19:40:08.562Z,80.87
2019-04-30T19:45:09.549Z,81.02
2019-04-30T19:50:06.170Z,81.28
2019-04-30T19:55:06.984Z,82.41
2019-04-30T20:00:03.968Z,82.9
2019-04-30T20:05:09.011Z,83.78
2019-04-30T20:10:09.224Z,84.4
2019-04-30T20:15:16.273Z,85.67
2019-04-30T20:20:09.919Z,85.69
2019-04-30T20:25:09.179Z,86.31
2019-04-30T20:30:03.330Z,86.69
2019-04-30T20:35:09.795Z,87.68
2019-04-30T20:40:08.715Z,87.91
2019-04-30T20:45:04.035Z,88.39
2019-04-30T20:50:07.222Z,88.69
2019-04-30T20:55:07.321Z,89.22
2019-04-30T21:00:03.325Z,89.23
2019-04-30T21:05:07.150Z,89.45
2019-04-30T21:10:06.822Z,89.97
2019-04-30T21:15:03.241Z,90.57
2019-04-30T21:20:06.304Z,90.81
2019-04-30T21:25:09.314Z,91
2019-04-30T21:30:03.331Z,91.9
2019-04-30T21:35:06.382Z,92.42
2019-04-30T21:40:07.309Z,92.71
2019-04-30T21:45:02.783Z,93.2
2019-04-30T21:50:08.300Z,93.45
2019-04-30T21:55:05.965Z,93.76
2019-04-30T22:00:03.396Z,94.06
2019-04-30T22:05:06.385Z,94.22
2019-04-30T22:10:07.613Z,94.26
2019-04-30T22:15:03.297Z,94.73
2019-04-30T22:20:09.513Z,95.25
2019-04-30T22:25:06.795Z,95.7
2019-04-30T22:30:03.254Z,95.74
2019-04-30T22:35:07.076Z,95.76
2019-04-30T22:40:05.779Z,95.7
2019-04-30T22:45:03.172Z,95.99
2019-04-30T22:50:06.284Z,96.38
2019-04-30T22:55:07.316Z,96.56
2019-04-30T23:00:03.350Z,96.45
2019-04-30T23:05:08.439Z,96.51
2019-04-30T23:10:01.636Z,96.51
2019-04-30T23:15:05.442Z,97.09
2019-04-30T23:20:01.540Z,97.08
2019-04-30T23:25:01.640Z,97.45
2019-04-30T23:30:03.398Z,97.74
2019-04-30T23:35:02.077Z,97.64
2019-04-30T23:40:01.190Z,98.07
2019-04-30T23:45:01.318Z,97.4
2019-04-30T23:50:01.415Z,98.26
2019-04-30T23:55:01.537Z,98.14
